Devine, Colorado
Current Conditions -  °F | °C
As of 2:53 PM on Friday 28 Nov 2014 (Local Time) from KPUB Reporting Station
Clear Clear  
Wind Chill: 71°   Ceiling: Unl
Heat Index: 71°   Visibility: 10mi
Dew Point:   Wind: 15mph
Humidity: 9%   Direction: 240°WSW
Pressure: 29.83"   Gusts: NA
Location:  38.2964°N, 104.538°W
Report Text: KPUB 282153Z AUTO 24013KT 10SM CLR 22/M13 A2983 RMK AO2 SLP072 T02171128
Loading
Personal Weather Stations






























Interactive Weather Map New forecast layout! Learn more

10-Day Weather Forecast

Advertisements
Track Severe Weather on mobile